sensor_id;sensor_type;location;lat;lon;timestamp;P1;durP1;ratioP1;P2;durP2;ratioP2
28627;SDS011;15815;46.760;19.604;2024-03-07T00:00:11;17.98;;;8.85;;
28627;SDS011;15815;46.760;19.604;2024-03-07T00:05:32;19.50;;;9.07;;
28627;SDS011;15815;46.760;19.604;2024-03-07T00:07:58;15.98;;;9.65;;
28627;SDS011;15815;46.760;19.604;2024-03-07T00:10:25;15.55;;;9.05;;
28627;SDS011;15815;46.760;19.604;2024-03-07T00:12:51;26.20;;;10.90;;
28627;SDS011;15815;46.760;19.604;2024-03-07T00:15:16;21.13;;;9.07;;
28627;SDS011;15815;46.760;19.604;2024-03-07T00:17:42;19.00;;;9.38;;
28627;SDS011;15815;46.760;19.604;2024-03-07T00:20:08;16.40;;;9.48;;
28627;SDS011;15815;46.760;19.604;2024-03-07T00:22:34;17.92;;;9.82;;
28627;SDS011;15815;46.760;19.604;2024-03-07T00:25:01;18.98;;;9.80;;
28627;SDS011;15815;46.760;19.604;2024-03-07T00:27:27;16.02;;;8.75;;
28627;SDS011;15815;46.760;19.604;2024-03-07T00:29:55;19.65;;;9.07;;
28627;SDS011;15815;46.760;19.604;2024-03-07T00:32:20;22.10;;;10.40;;
28627;SDS011;15815;46.760;19.604;2024-03-07T00:34:46;20.23;;;9.20;;
28627;SDS011;15815;46.760;19.604;2024-03-07T00:37:13;22.10;;;10.15;;
28627;SDS011;15815;46.760;19.604;2024-03-07T00:39:39;17.55;;;9.63;;
28627;SDS011;15815;46.760;19.604;2024-03-07T00:42:05;20.15;;;9.73;;
28627;SDS011;15815;46.760;19.604;2024-03-07T00:44:41;21.20;;;10.13;;
28627;SDS011;15815;46.760;19.604;2024-03-07T00:47:06;22.42;;;10.52;;
28627;SDS011;15815;46.760;19.604;2024-03-07T00:49:32;23.67;;;10.77;;
28627;SDS011;15815;46.760;19.604;2024-03-07T00:52:04;19.23;;;10.15;;
28627;SDS011;15815;46.760;19.604;2024-03-07T00:54:29;24.05;;;10.57;;
28627;SDS011;15815;46.760;19.604;2024-03-07T00:59:42;20.17;;;11.27;;
28627;SDS011;15815;46.760;19.604;2024-03-07T01:02:08;23.90;;;11.50;;
28627;SDS011;15815;46.760;19.604;2024-03-07T01:04:33;23.50;;;10.45;;
28627;SDS011;15815;46.760;19.604;2024-03-07T01:06:59;21.05;;;11.35;;
28627;SDS011;15815;46.760;19.604;2024-03-07T01:09:26;21.90;;;11.05;;
28627;SDS011;15815;46.760;19.604;2024-03-07T01:11:52;22.10;;;11.25;;
28627;SDS011;15815;46.760;19.604;2024-03-07T01:14:24;22.17;;;11.63;;
28627;SDS011;15815;46.760;19.604;2024-03-07T01:16:50;22.73;;;10.73;;
28627;SDS011;15815;46.760;19.604;2024-03-07T01:19:15;20.02;;;10.77;;
28627;SDS011;15815;46.760;19.604;2024-03-07T01:21:41;19.70;;;11.25;;
28627;SDS011;15815;46.760;19.604;2024-03-07T01:24:06;19.88;;;11.60;;
28627;SDS011;15815;46.760;19.604;2024-03-07T01:26:32;22.63;;;10.65;;
28627;SDS011;15815;46.760;19.604;2024-03-07T01:28:59;19.00;;;10.68;;
28627;SDS011;15815;46.760;19.604;2024-03-07T01:31:25;22.50;;;11.30;;
28627;SDS011;15815;46.760;19.604;2024-03-07T01:33:51;21.35;;;11.23;;
28627;SDS011;15815;46.760;19.604;2024-03-07T01:36:31;25.65;;;11.73;;
28627;SDS011;15815;46.760;19.604;2024-03-07T01:38:56;23.70;;;12.13;;
28627;SDS011;15815;46.760;19.604;2024-03-07T01:41:22;23.70;;;12.20;;
28627;SDS011;15815;46.760;19.604;2024-03-07T01:43:47;23.45;;;11.43;;
28627;SDS011;15815;46.760;19.604;2024-03-07T01:46:13;22.42;;;11.80;;
28627;SDS011;15815;46.760;19.604;2024-03-07T01:48:38;24.08;;;11.60;;
28627;SDS011;15815;46.760;19.604;2024-03-07T01:51:04;26.15;;;12.10;;
28627;SDS011;15815;46.760;19.604;2024-03-07T01:53:38;23.77;;;11.75;;
28627;SDS011;15815;46.760;19.604;2024-03-07T01:56:04;25.33;;;11.57;;
28627;SDS011;15815;46.760;19.604;2024-03-07T01:58:31;21.15;;;10.60;;
28627;SDS011;15815;46.760;19.604;2024-03-07T02:01:04;24.23;;;11.55;;
28627;SDS011;15815;46.760;19.604;2024-03-07T02:03:30;22.02;;;11.50;;
28627;SDS011;15815;46.760;19.604;2024-03-07T02:05:56;19.30;;;11.18;;
28627;SDS011;15815;46.760;19.604;2024-03-07T02:08:21;24.35;;;11.43;;
28627;SDS011;15815;46.760;19.604;2024-03-07T02:10:48;22.23;;;11.60;;
28627;SDS011;15815;46.760;19.604;2024-03-07T02:13:13;21.58;;;11.57;;
28627;SDS011;15815;46.760;19.604;2024-03-07T02:15:39;23.77;;;11.57;;
28627;SDS011;15815;46.760;19.604;2024-03-07T02:21:10;24.42;;;10.52;;
28627;SDS011;15815;46.760;19.604;2024-03-07T02:23:37;21.20;;;11.00;;
28627;SDS011;15815;46.760;19.604;2024-03-07T02:26:03;22.92;;;11.68;;
28627;SDS011;15815;46.760;19.604;2024-03-07T02:28:28;21.48;;;10.75;;
28627;SDS011;15815;46.760;19.604;2024-03-07T02:30:54;24.05;;;12.30;;
28627;SDS011;15815;46.760;19.604;2024-03-07T02:33:32;18.45;;;10.52;;
28627;SDS011;15815;46.760;19.604;2024-03-07T02:35:57;19.40;;;10.95;;
28627;SDS011;15815;46.760;19.604;2024-03-07T02:38:23;19.92;;;10.55;;
28627;SDS011;15815;46.760;19.604;2024-03-07T02:43:35;21.20;;;10.57;;
28627;SDS011;15815;46.760;19.604;2024-03-07T02:46:09;23.48;;;10.85;;
28627;SDS011;15815;46.760;19.604;2024-03-07T02:48:34;21.05;;;10.93;;
28627;SDS011;15815;46.760;19.604;2024-03-07T02:51:00;26.35;;;10.73;;
28627;SDS011;15815;46.760;19.604;2024-03-07T02:53:27;21.02;;;11.02;;
28627;SDS011;15815;46.760;19.604;2024-03-07T02:55:53;24.33;;;11.43;;
28627;SDS011;15815;46.760;19.604;2024-03-07T02:58:19;21.75;;;11.75;;
28627;SDS011;15815;46.760;19.604;2024-03-07T03:03:39;25.38;;;11.88;;
28627;SDS011;15815;46.760;19.604;2024-03-07T03:06:09;21.80;;;11.15;;
28627;SDS011;15815;46.760;19.604;2024-03-07T03:08:40;20.77;;;10.32;;
28627;SDS011;15815;46.760;19.604;2024-03-07T03:11:05;20.90;;;11.07;;
28627;SDS011;15815;46.760;19.604;2024-03-07T03:13:31;19.75;;;10.20;;
28627;SDS011;15815;46.760;19.604;2024-03-07T03:15:58;19.95;;;10.40;;
28627;SDS011;15815;46.760;19.604;2024-03-07T03:18:23;18.55;;;9.90;;
28627;SDS011;15815;46.760;19.604;2024-03-07T03:20:49;21.60;;;10.63;;
28627;SDS011;15815;46.760;19.604;2024-03-07T03:23:15;20.25;;;10.30;;
28627;SDS011;15815;46.760;19.604;2024-03-07T03:25:41;19.02;;;10.68;;
28627;SDS011;15815;46.760;19.604;2024-03-07T03:28:08;24.17;;;11.40;;
28627;SDS011;15815;46.760;19.604;2024-03-07T03:30:33;22.05;;;10.57;;
28627;SDS011;15815;46.760;19.604;2024-03-07T03:32:59;20.88;;;10.88;;
28627;SDS011;15815;46.760;19.604;2024-03-07T03:38:13;21.23;;;11.07;;
28627;SDS011;15815;46.760;19.604;2024-03-07T03:40:42;23.77;;;11.57;;
28627;SDS011;15815;46.760;19.604;2024-03-07T03:45:59;19.77;;;10.23;;
28627;SDS011;15815;46.760;19.604;2024-03-07T03:48:24;19.55;;;9.80;;
28627;SDS011;15815;46.760;19.604;2024-03-07T03:50:51;19.90;;;10.90;;
28627;SDS011;15815;46.760;19.604;2024-03-07T03:53:16;19.70;;;10.48;;
28627;SDS011;15815;46.760;19.604;2024-03-07T03:55:42;20.48;;;10.88;;
28627;SDS011;15815;46.760;19.604;2024-03-07T03:58:11;24.05;;;11.02;;
28627;SDS011;15815;46.760;19.604;2024-03-07T04:00:36;18.52;;;10.65;;
28627;SDS011;15815;46.760;19.604;2024-03-07T04:03:02;19.52;;;10.50;;
28627;SDS011;15815;46.760;19.604;2024-03-07T04:05:27;23.98;;;11.48;;
28627;SDS011;15815;46.760;19.604;2024-03-07T04:07:56;20.38;;;10.02;;
28627;SDS011;15815;46.760;19.604;2024-03-07T04:13:11;18.17;;;9.82;;
28627;SDS011;15815;46.760;19.604;2024-03-07T04:15:37;18.80;;;10.48;;
28627;SDS011;15815;46.760;19.604;2024-03-07T04:18:04;20.70;;;10.55;;
28627;SDS011;15815;46.760;19.604;2024-03-07T04:20:29;17.67;;;9.57;;
28627;SDS011;15815;46.760;19.604;2024-03-07T04:22:55;19.17;;;9.35;;
28627;SDS011;15815;46.760;19.604;2024-03-07T04:25:31;17.27;;;9.25;;
28627;SDS011;15815;46.760;19.604;2024-03-07T04:27:56;17.95;;;10.68;;
28627;SDS011;15815;46.760;19.604;2024-03-07T04:30:22;14.93;;;9.55;;
28627;SDS011;15815;46.760;19.604;2024-03-07T04:32:48;17.40;;;9.43;;
28627;SDS011;15815;46.760;19.604;2024-03-07T04:35:13;16.98;;;9.35;;
28627;SDS011;15815;46.760;19.604;2024-03-07T04:37:39;17.10;;;9.07;;
28627;SDS011;15815;46.760;19.604;2024-03-07T04:40:07;14.60;;;8.85;;
28627;SDS011;15815;46.760;19.604;2024-03-07T04:42:34;17.98;;;9.15;;
28627;SDS011;15815;46.760;19.604;2024-03-07T04:45:00;17.73;;;8.95;;
28627;SDS011;15815;46.760;19.604;2024-03-07T04:47:25;14.68;;;8.75;;
28627;SDS011;15815;46.760;19.604;2024-03-07T04:49:51;15.13;;;8.85;;
28627;SDS011;15815;46.760;19.604;2024-03-07T04:52:26;15.48;;;8.35;;
28627;SDS011;15815;46.760;19.604;2024-03-07T04:54:51;16.85;;;8.65;;
28627;SDS011;15815;46.760;19.604;2024-03-07T04:57:17;16.67;;;9.40;;
28627;SDS011;15815;46.760;19.604;2024-03-07T04:59:43;12.25;;;7.30;;
28627;SDS011;15815;46.760;19.604;2024-03-07T05:02:08;12.05;;;7.25;;
28627;SDS011;15815;46.760;19.604;2024-03-07T05:04:34;11.95;;;7.53;;
28627;SDS011;15815;46.760;19.604;2024-03-07T05:06:59;13.48;;;7.65;;
28627;SDS011;15815;46.760;19.604;2024-03-07T05:09:25;12.77;;;7.43;;
28627;SDS011;15815;46.760;19.604;2024-03-07T05:11:58;13.27;;;7.95;;
28627;SDS011;15815;46.760;19.604;2024-03-07T05:14:23;12.35;;;7.03;;
28627;SDS011;15815;46.760;19.604;2024-03-07T05:16:48;15.80;;;7.22;;
28627;SDS011;15815;46.760;19.604;2024-03-07T05:21:42;13.13;;;7.13;;
28627;SDS011;15815;46.760;19.604;2024-03-07T05:24:11;14.52;;;8.32;;
28627;SDS011;15815;46.760;19.604;2024-03-07T05:26:37;14.52;;;7.28;;
28627;SDS011;15815;46.760;19.604;2024-03-07T05:31:53;11.80;;;8.15;;
28627;SDS011;15815;46.760;19.604;2024-03-07T05:34:19;11.15;;;7.30;;
28627;SDS011;15815;46.760;19.604;2024-03-07T05:36:45;11.02;;;7.80;;
28627;SDS011;15815;46.760;19.604;2024-03-07T05:39:11;12.65;;;8.15;;
28627;SDS011;15815;46.760;19.604;2024-03-07T05:41:38;16.45;;;8.88;;
28627;SDS011;15815;46.760;19.604;2024-03-07T05:44:04;11.02;;;7.47;;
28627;SDS011;15815;46.760;19.604;2024-03-07T05:46:30;13.57;;;7.85;;
28627;SDS011;15815;46.760;19.604;2024-03-07T05:49:09;15.15;;;7.32;;
28627;SDS011;15815;46.760;19.604;2024-03-07T05:51:34;10.20;;;6.30;;
28627;SDS011;15815;46.760;19.604;2024-03-07T05:54:00;10.63;;;7.05;;
28627;SDS011;15815;46.760;19.604;2024-03-07T05:59:28;10.35;;;6.75;;
28627;SDS011;15815;46.760;19.604;2024-03-07T06:02:01;9.85;;;7.00;;
28627;SDS011;15815;46.760;19.604;2024-03-07T06:04:26;9.70;;;6.97;;
28627;SDS011;15815;46.760;19.604;2024-03-07T06:06:52;8.60;;;5.68;;
28627;SDS011;15815;46.760;19.604;2024-03-07T06:09:17;9.02;;;6.97;;
28627;SDS011;15815;46.760;19.604;2024-03-07T06:11:43;9.65;;;6.45;;
28627;SDS011;15815;46.760;19.604;2024-03-07T06:14:09;9.73;;;6.32;;
28627;SDS011;15815;46.760;19.604;2024-03-07T06:16:38;9.18;;;5.47;;
28627;SDS011;15815;46.760;19.604;2024-03-07T06:19:04;12.32;;;6.13;;
28627;SDS011;15815;46.760;19.604;2024-03-07T06:21:30;7.80;;;6.22;;
28627;SDS011;15815;46.760;19.604;2024-03-07T06:23:56;9.25;;;6.00;;
28627;SDS011;15815;46.760;19.604;2024-03-07T06:26:21;10.35;;;6.47;;
28627;SDS011;15815;46.760;19.604;2024-03-07T06:28:55;12.75;;;6.78;;
28627;SDS011;15815;46.760;19.604;2024-03-07T06:31:21;7.75;;;5.63;;
28627;SDS011;15815;46.760;19.604;2024-03-07T06:33:46;9.95;;;6.43;;
28627;SDS011;15815;46.760;19.604;2024-03-07T06:36:20;10.45;;;6.53;;
28627;SDS011;15815;46.760;19.604;2024-03-07T06:38:45;9.80;;;6.30;;
28627;SDS011;15815;46.760;19.604;2024-03-07T06:41:11;9.93;;;6.15;;
28627;SDS011;15815;46.760;19.604;2024-03-07T06:46:24;10.73;;;5.85;;
28627;SDS011;15815;46.760;19.604;2024-03-07T06:51:19;8.45;;;6.07;;
28627;SDS011;15815;46.760;19.604;2024-03-07T06:53:45;9.60;;;6.53;;
28627;SDS011;15815;46.760;19.604;2024-03-07T06:56:11;8.98;;;5.95;;
28627;SDS011;15815;46.760;19.604;2024-03-07T06:58:36;8.63;;;6.13;;
28627;SDS011;15815;46.760;19.604;2024-03-07T07:01:03;9.18;;;6.00;;
28627;SDS011;15815;46.760;19.604;2024-03-07T07:03:28;11.10;;;6.38;;
28627;SDS011;15815;46.760;19.604;2024-03-07T07:05:57;6.65;;;5.10;;
28627;SDS011;15815;46.760;19.604;2024-03-07T07:08:25;7.38;;;4.95;;
28627;SDS011;15815;46.760;19.604;2024-03-07T07:10:50;8.15;;;5.60;;
28627;SDS011;15815;46.760;19.604;2024-03-07T07:13:16;7.55;;;5.50;;
28627;SDS011;15815;46.760;19.604;2024-03-07T07:15:44;6.35;;;4.90;;
28627;SDS011;15815;46.760;19.604;2024-03-07T07:18:10;6.95;;;4.78;;
28627;SDS011;15815;46.760;19.604;2024-03-07T07:20:38;5.97;;;4.55;;
28627;SDS011;15815;46.760;19.604;2024-03-07T07:23:20;9.18;;;5.15;;
28627;SDS011;15815;46.760;19.604;2024-03-07T07:25:46;7.78;;;4.63;;
28627;SDS011;15815;46.760;19.604;2024-03-07T07:28:11;6.78;;;4.72;;
28627;SDS011;15815;46.760;19.604;2024-03-07T07:30:37;5.43;;;4.53;;
28627;SDS011;15815;46.760;19.604;2024-03-07T07:33:03;5.53;;;4.35;;
28627;SDS011;15815;46.760;19.604;2024-03-07T07:35:28;6.32;;;4.45;;
28627;SDS011;15815;46.760;19.604;2024-03-07T07:37:54;5.70;;;4.38;;
28627;SDS011;15815;46.760;19.604;2024-03-07T07:40:20;8.05;;;5.15;;
28627;SDS011;15815;46.760;19.604;2024-03-07T07:42:46;7.88;;;4.85;;
28627;SDS011;15815;46.760;19.604;2024-03-07T07:45:13;7.38;;;4.97;;
28627;SDS011;15815;46.760;19.604;2024-03-07T07:47:40;9.85;;;4.93;;
28627;SDS011;15815;46.760;19.604;2024-03-07T07:50:07;6.85;;;4.95;;
28627;SDS011;15815;46.760;19.604;2024-03-07T07:52:43;6.15;;;3.90;;
28627;SDS011;15815;46.760;19.604;2024-03-07T07:55:10;5.93;;;3.80;;
28627;SDS011;15815;46.760;19.604;2024-03-07T07:57:35;6.15;;;4.50;;
28627;SDS011;15815;46.760;19.604;2024-03-07T08:02:56;6.32;;;4.43;;
28627;SDS011;15815;46.760;19.604;2024-03-07T08:05:26;6.45;;;4.70;;
28627;SDS011;15815;46.760;19.604;2024-03-07T08:07:54;7.15;;;4.88;;
28627;SDS011;15815;46.760;19.604;2024-03-07T08:10:21;9.90;;;4.63;;
28627;SDS011;15815;46.760;19.604;2024-03-07T08:12:51;5.05;;;4.47;;
28627;SDS011;15815;46.760;19.604;2024-03-07T08:15:17;5.75;;;4.22;;
28627;SDS011;15815;46.760;19.604;2024-03-07T08:17:43;8.00;;;4.68;;
28627;SDS011;15815;46.760;19.604;2024-03-07T08:20:16;16.75;;;8.43;;
28627;SDS011;15815;46.760;19.604;2024-03-07T08:22:43;8.82;;;5.70;;
28627;SDS011;15815;46.760;19.604;2024-03-07T08:25:09;9.93;;;5.57;;
28627;SDS011;15815;46.760;19.604;2024-03-07T08:27:45;10.30;;;5.40;;
28627;SDS011;15815;46.760;19.604;2024-03-07T08:30:12;7.68;;;5.13;;
28627;SDS011;15815;46.760;19.604;2024-03-07T08:35:08;8.38;;;5.15;;
28627;SDS011;15815;46.760;19.604;2024-03-07T08:37:35;6.47;;;4.72;;
28627;SDS011;15815;46.760;19.604;2024-03-07T08:40:01;9.00;;;4.85;;
28627;SDS011;15815;46.760;19.604;2024-03-07T08:42:33;5.95;;;4.18;;
28627;SDS011;15815;46.760;19.604;2024-03-07T08:45:02;7.03;;;4.75;;
28627;SDS011;15815;46.760;19.604;2024-03-07T08:47:29;6.38;;;4.68;;
28627;SDS011;15815;46.760;19.604;2024-03-07T08:49:58;7.07;;;4.75;;
28627;SDS011;15815;46.760;19.604;2024-03-07T08:52:26;6.28;;;4.32;;
28627;SDS011;15815;46.760;19.604;2024-03-07T08:54:52;6.38;;;4.75;;
28627;SDS011;15815;46.760;19.604;2024-03-07T08:57:21;7.47;;;5.30;;
28627;SDS011;15815;46.760;19.604;2024-03-07T08:59:47;6.32;;;4.68;;
28627;SDS011;15815;46.760;19.604;2024-03-07T09:02:12;8.80;;;4.50;;
28627;SDS011;15815;46.760;19.604;2024-03-07T09:04:38;4.90;;;3.90;;
28627;SDS011;15815;46.760;19.604;2024-03-07T09:07:04;6.85;;;4.50;;
28627;SDS011;15815;46.760;19.604;2024-03-07T09:09:30;5.97;;;4.10;;
28627;SDS011;15815;46.760;19.604;2024-03-07T09:11:56;4.75;;;3.97;;
28627;SDS011;15815;46.760;19.604;2024-03-07T09:14:37;5.82;;;4.25;;
28627;SDS011;15815;46.760;19.604;2024-03-07T09:17:03;7.40;;;5.00;;
28627;SDS011;15815;46.760;19.604;2024-03-07T09:19:29;8.95;;;5.22;;
28627;SDS011;15815;46.760;19.604;2024-03-07T09:21:54;11.52;;;5.68;;
28627;SDS011;15815;46.760;19.604;2024-03-07T09:24:20;7.03;;;4.75;;
28627;SDS011;15815;46.760;19.604;2024-03-07T09:26:46;13.05;;;6.90;;
28627;SDS011;15815;46.760;19.604;2024-03-07T09:29:12;65.93;;;16.67;;
28627;SDS011;15815;46.760;19.604;2024-03-07T09:31:37;37.35;;;9.90;;
28627;SDS011;15815;46.760;19.604;2024-03-07T09:34:03;59.67;;;16.80;;
28627;SDS011;15815;46.760;19.604;2024-03-07T09:36:32;62.63;;;18.73;;
28627;SDS011;15815;46.760;19.604;2024-03-07T09:38:58;12.05;;;6.60;;
28627;SDS011;15815;46.760;19.604;2024-03-07T09:41:24;9.98;;;5.63;;
28627;SDS011;15815;46.760;19.604;2024-03-07T09:46:42;6.30;;;4.90;;
28627;SDS011;15815;46.760;19.604;2024-03-07T09:49:11;11.93;;;5.25;;
28627;SDS011;15815;46.760;19.604;2024-03-07T09:51:38;10.82;;;6.72;;
28627;SDS011;15815;46.760;19.604;2024-03-07T09:54:04;12.95;;;7.82;;
28627;SDS011;15815;46.760;19.604;2024-03-07T09:56:30;32.22;;;13.55;;
28627;SDS011;15815;46.760;19.604;2024-03-07T09:59:11;31.15;;;11.95;;
28627;SDS011;15815;46.760;19.604;2024-03-07T10:01:37;17.55;;;9.57;;
28627;SDS011;15815;46.760;19.604;2024-03-07T10:04:05;26.45;;;10.40;;
28627;SDS011;15815;46.760;19.604;2024-03-07T10:06:41;20.42;;;10.65;;
28627;SDS011;15815;46.760;19.604;2024-03-07T10:09:06;19.58;;;9.40;;
28627;SDS011;15815;46.760;19.604;2024-03-07T10:11:35;20.92;;;9.93;;
28627;SDS011;15815;46.760;19.604;2024-03-07T10:14:14;16.88;;;9.43;;
28627;SDS011;15815;46.760;19.604;2024-03-07T10:16:39;16.23;;;8.25;;
28627;SDS011;15815;46.760;19.604;2024-03-07T10:19:05;11.63;;;7.22;;
28627;SDS011;15815;46.760;19.604;2024-03-07T10:21:47;14.75;;;7.88;;
28627;SDS011;15815;46.760;19.604;2024-03-07T10:24:12;11.53;;;6.30;;
28627;SDS011;15815;46.760;19.604;2024-03-07T10:26:38;8.40;;;5.20;;
28627;SDS011;15815;46.760;19.604;2024-03-07T10:31:40;29.85;;;11.18;;
28627;SDS011;15815;46.760;19.604;2024-03-07T10:34:05;24.52;;;11.40;;
28627;SDS011;15815;46.760;19.604;2024-03-07T10:36:33;11.07;;;6.93;;
28627;SDS011;15815;46.760;19.604;2024-03-07T10:38:59;10.38;;;7.65;;
28627;SDS011;15815;46.760;19.604;2024-03-07T10:41:25;11.68;;;7.32;;
28627;SDS011;15815;46.760;19.604;2024-03-07T10:43:57;10.23;;;6.88;;
28627;SDS011;15815;46.760;19.604;2024-03-07T10:46:26;11.40;;;6.72;;
28627;SDS011;15815;46.760;19.604;2024-03-07T10:48:55;10.48;;;6.55;;
28627;SDS011;15815;46.760;19.604;2024-03-07T10:51:26;9.65;;;6.40;;
28627;SDS011;15815;46.760;19.604;2024-03-07T10:59:26;9.27;;;6.57;;
28627;SDS011;15815;46.760;19.604;2024-03-07T11:01:59;10.10;;;7.00;;
28627;SDS011;15815;46.760;19.604;2024-03-07T11:04:42;23.77;;;11.63;;
28627;SDS011;15815;46.760;19.604;2024-03-07T11:07:08;17.15;;;10.05;;
28627;SDS011;15815;46.760;19.604;2024-03-07T11:09:34;20.10;;;10.05;;
28627;SDS011;15815;46.760;19.604;2024-03-07T11:12:00;13.07;;;7.82;;
28627;SDS011;15815;46.760;19.604;2024-03-07T11:14:27;15.20;;;8.15;;
28627;SDS011;15815;46.760;19.604;2024-03-07T11:16:53;12.13;;;7.78;;
28627;SDS011;15815;46.760;19.604;2024-03-07T11:22:07;12.20;;;7.85;;
28627;SDS011;15815;46.760;19.604;2024-03-07T11:24:32;13.60;;;8.30;;
28627;SDS011;15815;46.760;19.604;2024-03-07T11:26:58;12.63;;;7.97;;
28627;SDS011;15815;46.760;19.604;2024-03-07T11:29:50;14.05;;;8.35;;
28627;SDS011;15815;46.760;19.604;2024-03-07T11:32:15;12.73;;;8.05;;
28627;SDS011;15815;46.760;19.604;2024-03-07T11:34:44;29.35;;;14.45;;
28627;SDS011;15815;46.760;19.604;2024-03-07T11:37:10;17.55;;;9.82;;
28627;SDS011;15815;46.760;19.604;2024-03-07T11:42:30;16.08;;;9.82;;
28627;SDS011;15815;46.760;19.604;2024-03-07T11:44:56;15.27;;;9.55;;
28627;SDS011;15815;46.760;19.604;2024-03-07T11:47:22;17.25;;;10.98;;
28627;SDS011;15815;46.760;19.604;2024-03-07T11:52:33;17.17;;;10.10;;
28627;SDS011;15815;46.760;19.604;2024-03-07T11:54:58;17.90;;;10.65;;
28627;SDS011;15815;46.760;19.604;2024-03-07T11:57:24;16.58;;;9.20;;
28627;SDS011;15815;46.760;19.604;2024-03-07T11:59:50;17.90;;;9.95;;
28627;SDS011;15815;46.760;19.604;2024-03-07T12:02:18;15.95;;;8.93;;
28627;SDS011;15815;46.760;19.604;2024-03-07T12:04:44;12.60;;;8.65;;
28627;SDS011;15815;46.760;19.604;2024-03-07T12:07:10;19.38;;;10.70;;
28627;SDS011;15815;46.760;19.604;2024-03-07T12:09:39;32.67;;;16.48;;
28627;SDS011;15815;46.760;19.604;2024-03-07T12:12:05;51.63;;;20.60;;
28627;SDS011;15815;46.760;19.604;2024-03-07T12:14:31;50.55;;;16.73;;
28627;SDS011;15815;46.760;19.604;2024-03-07T12:17:05;33.97;;;13.40;;
28627;SDS011;15815;46.760;19.604;2024-03-07T12:19:34;37.42;;;15.15;;
28627;SDS011;15815;46.760;19.604;2024-03-07T12:22:00;44.33;;;19.75;;
28627;SDS011;15815;46.760;19.604;2024-03-07T12:24:36;35.45;;;16.67;;
28627;SDS011;15815;46.760;19.604;2024-03-07T12:27:08;17.17;;;9.32;;
28627;SDS011;15815;46.760;19.604;2024-03-07T12:29:37;20.65;;;11.15;;
28627;SDS011;15815;46.760;19.604;2024-03-07T12:32:08;38.33;;;13.45;;
28627;SDS011;15815;46.760;19.604;2024-03-07T12:34:34;23.95;;;11.27;;
28627;SDS011;15815;46.760;19.604;2024-03-07T12:37:00;30.77;;;13.35;;
28627;SDS011;15815;46.760;19.604;2024-03-07T12:39:26;31.27;;;12.00;;
28627;SDS011;15815;46.760;19.604;2024-03-07T12:41:52;32.17;;;13.63;;
28627;SDS011;15815;46.760;19.604;2024-03-07T12:44:17;18.73;;;9.38;;
28627;SDS011;15815;46.760;19.604;2024-03-07T12:46:47;15.07;;;9.50;;
28627;SDS011;15815;46.760;19.604;2024-03-07T12:49:14;23.20;;;12.05;;
28627;SDS011;15815;46.760;19.604;2024-03-07T12:51:40;19.38;;;10.45;;
28627;SDS011;15815;46.760;19.604;2024-03-07T12:54:05;19.88;;;11.70;;
28627;SDS011;15815;46.760;19.604;2024-03-07T12:56:31;19.60;;;10.70;;
28627;SDS011;15815;46.760;19.604;2024-03-07T12:59:13;21.88;;;10.40;;
28627;SDS011;15815;46.760;19.604;2024-03-07T13:01:39;45.00;;;15.55;;
28627;SDS011;15815;46.760;19.604;2024-03-07T13:04:07;156.82;;;46.25;;
28627;SDS011;15815;46.760;19.604;2024-03-07T13:06:34;127.25;;;47.42;;
28627;SDS011;15815;46.760;19.604;2024-03-07T13:08:59;35.35;;;15.15;;
28627;SDS011;15815;46.760;19.604;2024-03-07T13:11:26;19.58;;;11.70;;
28627;SDS011;15815;46.760;19.604;2024-03-07T13:13:52;18.23;;;9.73;;
28627;SDS011;15815;46.760;19.604;2024-03-07T13:16:17;16.05;;;10.00;;
28627;SDS011;15815;46.760;19.604;2024-03-07T13:18:45;14.38;;;8.60;;
28627;SDS011;15815;46.760;19.604;2024-03-07T13:21:11;17.77;;;9.00;;
28627;SDS011;15815;46.760;19.604;2024-03-07T13:23:36;14.82;;;8.98;;
28627;SDS011;15815;46.760;19.604;2024-03-07T13:26:04;14.57;;;9.30;;
28627;SDS011;15815;46.760;19.604;2024-03-07T13:28:30;21.35;;;10.70;;
28627;SDS011;15815;46.760;19.604;2024-03-07T13:30:55;21.65;;;10.98;;
28627;SDS011;15815;46.760;19.604;2024-03-07T13:33:21;18.42;;;10.85;;
28627;SDS011;15815;46.760;19.604;2024-03-07T13:35:47;15.25;;;9.70;;
28627;SDS011;15815;46.760;19.604;2024-03-07T13:38:12;20.75;;;10.43;;
28627;SDS011;15815;46.760;19.604;2024-03-07T13:43:26;13.15;;;8.10;;
28627;SDS011;15815;46.760;19.604;2024-03-07T13:45:51;16.35;;;10.05;;
28627;SDS011;15815;46.760;19.604;2024-03-07T13:48:17;12.13;;;7.93;;
28627;SDS011;15815;46.760;19.604;2024-03-07T13:50:42;12.00;;;6.93;;
28627;SDS011;15815;46.760;19.604;2024-03-07T13:53:08;36.72;;;18.33;;
28627;SDS011;15815;46.760;19.604;2024-03-07T13:55:38;30.73;;;17.23;;
28627;SDS011;15815;46.760;19.604;2024-03-07T13:58:12;16.73;;;11.00;;
28627;SDS011;15815;46.760;19.604;2024-03-07T14:06:48;9.60;;;5.88;;
28627;SDS011;15815;46.760;19.604;2024-03-07T14:12:34;16.95;;;8.13;;
28627;SDS011;15815;46.760;19.604;2024-03-07T14:33:03;20.65;;;10.63;;
28627;SDS011;15815;46.760;19.604;2024-03-07T14:38:54;12.60;;;7.70;;
28627;SDS011;15815;46.760;19.604;2024-03-07T14:44:20;17.20;;;9.45;;
28627;SDS011;15815;46.760;19.604;2024-03-07T14:46:48;18.60;;;9.23;;
28627;SDS011;15815;46.760;19.604;2024-03-07T14:49:18;21.25;;;9.98;;
28627;SDS011;15815;46.760;19.604;2024-03-07T14:51:44;16.38;;;10.07;;
28627;SDS011;15815;46.760;19.604;2024-03-07T14:54:11;17.13;;;9.05;;
28627;SDS011;15815;46.760;19.604;2024-03-07T14:56:37;43.10;;;17.77;;
28627;SDS011;15815;46.760;19.604;2024-03-07T14:59:02;42.45;;;15.95;;
28627;SDS011;15815;46.760;19.604;2024-03-07T15:01:28;42.63;;;18.38;;
28627;SDS011;15815;46.760;19.604;2024-03-07T15:03:54;45.85;;;17.02;;
28627;SDS011;15815;46.760;19.604;2024-03-07T15:06:20;101.60;;;30.25;;
28627;SDS011;15815;46.760;19.604;2024-03-07T15:09:00;72.57;;;23.33;;
28627;SDS011;15815;46.760;19.604;2024-03-07T15:11:29;39.40;;;21.02;;
28627;SDS011;15815;46.760;19.604;2024-03-07T15:13:59;39.63;;;20.95;;
28627;SDS011;15815;46.760;19.604;2024-03-07T15:16:36;19.83;;;10.75;;
28627;SDS011;15815;46.760;19.604;2024-03-07T15:19:06;21.42;;;10.80;;
28627;SDS011;15815;46.760;19.604;2024-03-07T15:21:35;16.88;;;9.60;;
28627;SDS011;15815;46.760;19.604;2024-03-07T15:24:01;19.02;;;8.48;;
28627;SDS011;15815;46.760;19.604;2024-03-07T15:26:27;16.70;;;8.70;;
28627;SDS011;15815;46.760;19.604;2024-03-07T15:31:23;15.35;;;8.88;;
28627;SDS011;15815;46.760;19.604;2024-03-07T15:33:50;14.82;;;9.07;;
28627;SDS011;15815;46.760;19.604;2024-03-07T15:36:20;15.23;;;9.05;;
28627;SDS011;15815;46.760;19.604;2024-03-07T15:38:47;15.30;;;9.75;;
28627;SDS011;15815;46.760;19.604;2024-03-07T15:41:13;18.77;;;11.85;;
28627;SDS011;15815;46.760;19.604;2024-03-07T15:43:39;17.20;;;9.80;;
28627;SDS011;15815;46.760;19.604;2024-03-07T15:46:05;14.70;;;9.02;;
28627;SDS011;15815;46.760;19.604;2024-03-07T15:48:31;13.95;;;9.27;;
28627;SDS011;15815;46.760;19.604;2024-03-07T15:50:56;16.20;;;9.50;;
28627;SDS011;15815;46.760;19.604;2024-03-07T15:53:22;30.20;;;14.20;;
28627;SDS011;15815;46.760;19.604;2024-03-07T15:55:51;22.77;;;12.27;;
28627;SDS011;15815;46.760;19.604;2024-03-07T15:58:17;29.73;;;15.38;;